Time;durP1;ratioP1;P1;durP2;ratioP2;P2;SDS_P1;SDS_P2;PMS_P1;PMS_P2;Temp;Humidity;BMP_temperature;BMP_pressure;BME280_temperature;BME280_humidity;BME280_pressure;Samples;Min_cycle;Max_cycle;Signal;HPM_P1;HPM_P2
2022/05/11 00:00:11;;;;;;;7.70;5.55;;;16.30;99.90;;;;;;6217118;23;20032;-88
2022/05/11 00:02:58;;;;;;;8.00;5.65;;;16.30;99.90;;;;;;6215173;23;20028;-86
2022/05/11 00:05:46;;;;;;;7.50;6.00;;;16.30;99.90;;;;;;6215840;23;20099;-90
2022/05/11 00:08:36;;;;;;;8.30;5.93;;;16.30;99.90;;;;;;6215396;23;20025;-90
2022/05/11 00:11:26;;;;;;;7.15;5.60;;;16.30;99.90;;;;;;6217767;23;20032;-90
2022/05/11 00:14:13;;;;;;;7.05;5.60;;;16.20;99.90;;;;;;6195307;23;20101;-90
2022/05/11 00:17:00;;;;;;;11.95;5.68;;;16.20;99.90;;;;;;6215027;23;20036;-89
2022/05/11 00:19:48;;;;;;;6.20;5.60;;;16.20;99.90;;;;;;6215875;23;20122;-89
2022/05/11 00:22:36;;;;;;;10.55;5.70;;;16.20;99.90;;;;;;6215369;23;20098;-88
2022/05/11 00:25:25;;;;;;;6.18;5.50;;;16.20;99.90;;;;;;6213164;23;20083;-90
2022/05/11 00:28:12;;;;;;;8.15;5.80;;;16.30;99.90;;;;;;6217180;23;20020;-90
2022/05/11 00:31:00;;;;;;;10.77;6.18;;;16.40;99.90;;;;;;6214069;23;20024;-90
2022/05/11 00:33:48;;;;;;;7.20;5.68;;;16.30;99.90;;;;;;6215480;23;20028;-91
2022/05/11 00:36:36;;;;;;;7.38;6.13;;;16.20;99.90;;;;;;6216980;23;20324;-90
2022/05/11 00:39:23;;;;;;;8.60;6.10;;;16.20;99.90;;;;;;6215607;23;20123;-90
2022/05/11 00:42:14;;;;;;;6.38;5.72;;;16.10;99.90;;;;;;6214267;23;20029;-91
2022/05/11 00:45:04;;;;;;;6.63;5.93;;;16.10;99.90;;;;;;6215324;23;20035;-90
2022/05/11 00:51:19;;;;;;;8.85;5.93;;;16.10;99.90;;;;;;6214585;23;20029;-87
2022/05/11 00:54:07;;;;;;;8.85;6.57;;;16.20;99.90;;;;;;6213821;23;20090;-90
2022/05/11 00:57:01;;;;;;;6.68;5.97;;;16.20;99.90;;;;;;6216894;23;20114;-89
2022/05/11 00:59:50;;;;;;;6.97;5.88;;;16.10;99.90;;;;;;6217311;23;20373;-90
2022/05/11 01:02:42;;;;;;;10.52;5.90;;;16.00;99.90;;;;;;6195277;23;20024;-90
2022/05/11 01:05:30;;;;;;;6.28;4.70;;;15.90;99.90;;;;;;6219295;23;20066;-91
2022/05/11 01:08:20;;;;;;;7.88;6.10;;;15.90;99.90;;;;;;6227982;23;20079;-90
2022/05/11 01:11:09;;;;;;;8.23;6.40;;;15.90;99.90;;;;;;6238201;23;20036;-89
2022/05/11 01:13:57;;;;;;;9.98;6.35;;;15.80;99.90;;;;;;6226746;23;20095;-90
2022/05/11 01:16:45;;;;;;;6.90;6.15;;;15.60;99.90;;;;;;6194561;23;20032;-91
2022/05/11 01:19:40;;;;;;;8.63;6.93;;;15.60;99.90;;;;;;6194700;23;20025;-90
2022/05/11 01:22:42;;;;;;;7.75;6.30;;;15.60;99.90;;;;;;6193236;23;20036;-89
2022/05/11 01:25:30;;;;;;;7.70;6.65;;;15.60;99.90;;;;;;6214471;23;20075;-93
2022/05/11 01:28:19;;;;;;;9.13;6.05;;;15.50;99.90;;;;;;6215210;23;20020;-91
2022/05/11 01:31:11;;;;;;;8.45;6.10;;;15.50;99.90;;;;;;6214909;23;20036;-91
2022/05/11 01:33:59;;;;;;;7.93;6.78;;;15.50;99.90;;;;;;6214555;23;20031;-91
2022/05/11 01:36:48;;;;;;;8.85;6.97;;;15.50;99.90;;;;;;6216473;23;20364;-90
2022/05/11 01:39:37;;;;;;;14.88;6.50;;;15.50;99.90;;;;;;6223812;23;20116;-91
2022/05/11 01:42:24;;;;;;;6.95;6.25;;;15.50;99.90;;;;;;6201772;23;20031;-88
2022/05/11 01:45:12;;;;;;;11.30;6.85;;;15.40;99.90;;;;;;6232593;23;20021;-89
2022/05/11 01:47:59;;;;;;;9.32;6.32;;;15.40;99.90;;;;;;6208348;23;20036;-90
2022/05/11 01:50:51;;;;;;;8.48;6.45;;;15.30;99.90;;;;;;6204178;23;20024;-90
2022/05/11 01:53:39;;;;;;;10.77;6.10;;;15.30;99.90;;;;;;6214784;23;20424;-91
2022/05/11 01:56:27;;;;;;;8.70;6.93;;;15.30;99.90;;;;;;6215993;23;20036;-91
2022/05/11 01:59:16;;;;;;;6.80;6.10;;;15.30;99.90;;;;;;6217588;23;20327;-92
2022/05/11 02:02:04;;;;;;;7.07;6.30;;;15.30;99.90;;;;;;6194662;23;20086;-91
2022/05/11 02:07:57;;;;;;;7.07;5.90;;;15.20;99.90;;;;;;6216488;23;20092;-91
2022/05/11 02:10:45;;;;;;;7.50;6.10;;;15.20;99.90;;;;;;6217192;23;20427;-89
2022/05/11 02:13:34;;;;;;;11.35;7.57;;;15.20;99.90;;;;;;6218113;23;20431;-89
2022/05/11 02:16:23;;;;;;;7.40;6.28;;;15.30;99.90;;;;;;6195117;23;20028;-90
2022/05/11 02:19:11;;;;;;;9.48;5.90;;;15.40;99.90;;;;;;6217053;23;20032;-90
2022/05/11 02:21:59;;;;;;;8.90;7.07;;;15.40;99.90;;;;;;6216940;23;20041;-89
2022/05/11 02:24:50;;;;;;;7.50;6.28;;;15.40;99.90;;;;;;6193204;23;20363;-90
2022/05/11 02:27:42;;;;;;;7.83;6.93;;;15.40;99.90;;;;;;6218531;23;20420;-91
2022/05/11 02:30:33;;;;;;;9.35;6.63;;;15.40;99.90;;;;;;6217003;23;20040;-89
2022/05/11 02:33:21;;;;;;;9.90;7.03;;;15.40;99.90;;;;;;6216570;23;20111;-91
2022/05/11 02:36:08;;;;;;;7.60;6.47;;;15.30;99.90;;;;;;6217826;23;20090;-91
2022/05/11 02:38:58;;;;;;;8.40;7.05;;;15.30;99.90;;;;;;6217087;23;20129;-91
2022/05/11 02:41:45;;;;;;;9.07;6.78;;;15.10;99.90;;;;;;6196936;23;20492;-91
2022/05/11 02:44:33;;;;;;;9.40;7.28;;;15.00;99.90;;;;;;6225482;23;20095;-91
2022/05/11 02:47:20;;;;;;;9.02;6.82;;;14.90;99.90;;;;;;6218156;23;20025;-92
2022/05/11 02:50:09;;;;;;;7.70;6.90;;;14.90;99.90;;;;;;6216127;23;20390;-91
2022/05/11 02:52:56;;;;;;;7.85;6.57;;;14.90;99.90;;;;;;6198165;23;20021;-91
2022/05/11 02:55:53;;;;;;;8.40;6.63;;;14.90;99.90;;;;;;6217377;23;20037;-92
2022/05/11 02:58:40;;;;;;;8.50;6.40;;;14.90;99.90;;;;;;6214630;23;20126;-90
2022/05/11 03:01:27;;;;;;;9.45;7.22;;;14.90;99.90;;;;;;6196381;23;20024;-91
2022/05/11 03:04:17;;;;;;;8.30;6.60;;;14.80;99.90;;;;;;6218467;23;20328;-91
2022/05/11 03:07:05;;;;;;;12.20;7.30;;;14.70;99.90;;;;;;6178087;23;20447;-90
2022/05/11 03:09:53;;;;;;;9.10;6.68;;;14.80;99.90;;;;;;6218702;23;20056;-90
2022/05/11 03:12:40;;;;;;;8.82;7.25;;;14.80;99.90;;;;;;6219667;23;20047;-90
2022/05/11 03:15:28;;;;;;;9.65;7.13;;;14.80;99.90;;;;;;6215636;23;20039;-89
2022/05/11 03:18:15;;;;;;;10.30;7.55;;;14.80;99.90;;;;;;6217216;23;20056;-90
2022/05/11 03:21:02;;;;;;;8.85;7.10;;;14.80;99.90;;;;;;6216533;23;20025;-91
2022/05/11 03:23:49;;;;;;;7.85;7.05;;;14.70;99.90;;;;;;6216965;23;20035;-90
2022/05/11 03:26:36;;;;;;;11.20;8.10;;;14.60;99.90;;;;;;6216324;23;20020;-91
2022/05/11 03:29:24;;;;;;;9.50;7.45;;;14.70;99.90;;;;;;6216133;23;20051;-89
2022/05/11 03:35:17;;;;;;;10.38;7.28;;;14.60;99.90;;;;;;6217357;23;20409;-90
2022/05/11 03:38:05;;;;;;;12.68;8.27;;;14.50;99.90;;;;;;6218641;23;20082;-89
2022/05/11 03:40:52;;;;;;;10.27;7.93;;;14.50;99.90;;;;;;6218854;23;20028;-89
2022/05/11 03:43:39;;;;;;;11.65;8.25;;;14.40;99.90;;;;;;6215863;23;20024;-90
2022/05/11 03:46:33;;;;;;;10.25;8.18;;;14.40;99.90;;;;;;6217805;23;20100;-89
2022/05/11 03:49:21;;;;;;;9.13;7.68;;;14.40;99.90;;;;;;6218428;23;20020;-91
2022/05/11 03:52:12;;;;;;;13.70;8.05;;;14.30;99.90;;;;;;6194401;23;20026;-90
2022/05/11 03:55:00;;;;;;;12.32;7.97;;;14.30;99.90;;;;;;6218836;23;20300;-91
2022/05/11 03:57:47;;;;;;;11.07;8.50;;;14.30;99.90;;;;;;6218486;23;20029;-90
2022/05/11 04:00:35;;;;;;;10.18;7.90;;;14.30;99.90;;;;;;6219087;23;20039;-89
2022/05/11 04:03:24;;;;;;;11.18;8.43;;;14.40;99.90;;;;;;6219565;23;20075;-91
2022/05/11 04:06:12;;;;;;;12.20;8.38;;;14.40;99.90;;;;;;6220655;23;20028;-92
2022/05/11 04:08:59;;;;;;;9.20;7.35;;;14.40;99.90;;;;;;6216879;23;20024;-90
2022/05/11 04:11:47;;;;;;;9.38;6.93;;;14.40;99.90;;;;;;6217340;23;20090;-89
2022/05/11 04:14:36;;;;;;;8.95;7.25;;;14.50;99.90;;;;;;6197132;23;20028;-89
2022/05/11 04:17:45;;;;;;;9.95;7.22;;;14.60;99.90;;;;;;6197251;23;20025;-87
2022/05/11 04:20:32;;;;;;;10.40;6.80;;;14.60;99.90;;;;;;6216677;23;20041;-89
2022/05/11 04:23:19;;;;;;;9.38;7.57;;;14.70;99.90;;;;;;6216449;23;20020;-91
2022/05/11 04:26:12;;;;;;;9.40;7.32;;;14.70;99.90;;;;;;6195491;23;20024;-88
2022/05/11 04:29:01;;;;;;;9.80;7.75;;;14.70;99.90;;;;;;6213762;23;20024;-88
2022/05/11 04:31:56;;;;;;;10.95;7.38;;;14.70;99.90;;;;;;6217543;23;20082;-87
2022/05/11 04:34:47;;;;;;;10.43;7.90;;;14.70;99.90;;;;;;6217663;23;20035;-85
2022/05/11 04:37:37;;;;;;;9.40;7.63;;;14.70;99.90;;;;;;6217646;23;20048;-87
2022/05/11 04:40:25;;;;;;;10.98;8.07;;;14.70;99.90;;;;;;6194469;23;20020;-89
2022/05/11 04:43:13;;;;;;;10.55;8.05;;;14.70;99.90;;;;;;6216260;23;20021;-88
2022/05/11 04:46:01;;;;;;;9.18;7.97;;;14.70;99.90;;;;;;6218222;23;20017;-88
2022/05/11 04:48:49;;;;;;;10.75;7.75;;;14.70;99.90;;;;;;6205879;23;20420;-87
2022/05/11 04:51:36;;;;;;;9.45;7.05;;;14.70;99.90;;;;;;6222613;23;20040;-87
2022/05/11 04:54:24;;;;;;;8.82;7.70;;;14.70;99.90;;;;;;6225638;23;20083;-88
2022/05/11 04:57:12;;;;;;;10.73;7.90;;;14.70;99.90;;;;;;6217898;23;20383;-87
2022/05/11 04:59:59;;;;;;;9.32;7.15;;;14.70;99.90;;;;;;6196815;23;20118;-87
2022/05/11 05:02:47;;;;;;;9.32;7.70;;;14.70;99.90;;;;;;6215659;23;20024;-88
2022/05/11 05:05:34;;;;;;;12.65;9.45;;;14.70;99.90;;;;;;6221017;23;20056;-85
2022/05/11 05:08:23;;;;;;;12.80;7.82;;;14.70;99.90;;;;;;6221222;23;20048;-87
2022/05/11 05:11:13;;;;;;;8.75;7.63;;;14.70;99.90;;;;;;6224056;23;20041;-87
2022/05/11 05:14:06;;;;;;;10.80;8.15;;;14.70;99.90;;;;;;6202062;23;20035;-88
2022/05/11 05:17:00;;;;;;;10.10;7.97;;;14.70;99.90;;;;;;6206115;23;20048;-87
2022/05/11 05:19:49;;;;;;;12.95;8.30;;;14.60;99.90;;;;;;6213394;23;20036;-88
2022/05/11 05:22:36;;;;;;;10.15;8.05;;;14.70;99.90;;;;;;6232567;23;20024;-89
2022/05/11 05:33:18;;;;;;;9.18;7.68;;;15.00;99.90;;;;;;6217629;23;20009;-87
2022/05/11 05:36:07;;;;;;;8.80;7.32;;;15.10;99.90;;;;;;6197245;23;20107;-90
2022/05/11 05:39:44;;;;;;;;;;;;;;;;;;;;;
2022/05/11 05:43:21;;;;;;;9.48;6.95;;;15.30;99.90;;;;;;6134620;23;20038;-90
2022/05/11 05:46:25;;;;;;;7.93;7.07;;;15.40;99.90;;;;;;5966486;23;20028;-89
2022/05/11 05:49:21;;;;;;;10.05;6.97;;;15.50;99.90;;;;;;6066953;23;20027;-87
2022/05/11 05:52:38;;;;;;;;;;;;;;;;;;;;;
2022/05/11 05:55:33;;;;;;;7.60;6.57;;;15.70;99.90;;;;;;6065752;23;20034;-86
2022/05/11 05:58:37;;;;;;;8.88;6.10;;;15.90;99.90;;;;;;6217282;23;20367;-88
2022/05/11 06:01:59;;;;;;;9.00;6.78;;;16.10;99.90;;;;;;6218886;23;20039;-89
2022/05/11 06:05:28;;;;;;;9.77;6.90;;;16.20;99.90;;;;;;6117574;23;20073;-85
2022/05/11 06:08:53;;;;;;;7.75;5.70;;;16.40;99.90;;;;;;6111836;23;20026;-91
2022/05/11 06:15:49;;;;;;;7.30;5.72;;;16.90;99.90;;;;;;5926841;24;20223;-88
2022/05/11 06:18:56;;;;;;;8.38;5.28;;;17.10;99.90;;;;;;5933248;23;20029;-87
2022/05/11 06:21:48;;;;;;;7.00;5.38;;;17.30;99.90;;;;;;6028936;23;20039;-89
2022/05/11 06:25:04;;;;;;;10.25;4.93;;;17.50;99.90;;;;;;6011445;23;20028;-91
2022/05/11 06:31:42;;;;;;;6.72;4.43;;;18.00;99.90;;;;;;5984833;23;20019;-87
2022/05/11 06:34:41;;;;;;;6.95;5.22;;;18.20;99.90;;;;;;6029194;23;20374;-88
2022/05/11 06:37:28;;;;;;;6.60;4.68;;;18.20;99.90;;;;;;6101693;23;20030;-89
2022/05/11 06:40:25;;;;;;;8.18;4.72;;;18.40;99.90;;;;;;6079267;23;20378;-89
2022/05/11 06:43:12;;;;;;;5.47;4.72;;;18.60;99.90;;;;;;6097660;23;20027;-86
2022/05/11 06:46:00;;;;;;;5.20;4.70;;;18.80;99.90;;;;;;6142328;23;20087;-88
2022/05/11 06:48:50;;;;;;;6.95;4.80;;;19.00;99.90;;;;;;6180154;23;20040;-90
2022/05/11 06:51:38;;;;;;;7.00;4.72;;;19.10;99.90;;;;;;6187573;23;20089;-88
2022/05/11 07:00:46;;;;;;;8.35;4.18;;;19.60;99.90;;;;;;6185789;23;20044;-89
2022/05/11 07:03:33;;;;;;;5.57;4.75;;;19.90;99.90;;;;;;6188048;23;20448;-90
2022/05/11 07:06:25;;;;;;;5.28;4.30;;;20.10;99.90;;;;;;6187050;23;20421;-90
2022/05/11 07:09:13;;;;;;;6.38;5.00;;;20.30;99.90;;;;;;6188554;23;20337;-88
2022/05/11 07:15:09;;;;;;;5.75;4.50;;;20.60;97.10;;;;;;6215907;23;20024;-90
2022/05/11 07:17:59;;;;;;;5.55;4.22;;;20.40;97.10;;;;;;6195360;23;20036;-90
2022/05/11 07:20:48;;;;;;;6.95;4.35;;;20.40;97.60;;;;;;6193823;23;20434;-86
2022/05/11 07:23:38;;;;;;;6.53;4.20;;;20.40;97.20;;;;;;6215209;23;20028;-87
2022/05/11 07:26:26;;;;;;;5.25;4.07;;;20.90;97.10;;;;;;6194477;23;20163;-88
2022/05/11 07:29:16;;;;;;;6.63;5.03;;;21.20;95.10;;;;;;6217208;23;20020;-88
2022/05/11 07:32:12;;;;;;;6.25;4.85;;;21.40;94.70;;;;;;6216602;23;20328;-88
2022/05/11 07:34:59;;;;;;;5.50;4.10;;;21.60;93.30;;;;;;6194707;23;20025;-91
2022/05/11 07:37:47;;;;;;;4.70;4.28;;;22.30;94.70;;;;;;6195732;23;20036;-90
2022/05/11 07:40:39;;;;;;;8.63;4.20;;;22.20;90.80;;;;;;6216341;23;20033;-88
2022/05/11 07:43:26;;;;;;;4.75;4.18;;;22.00;91.30;;;;;;6215726;23;20117;-86
2022/05/11 07:46:16;;;;;;;6.88;3.95;;;22.30;90.80;;;;;;6215313;23;20020;-90
2022/05/11 07:49:05;;;;;;;6.38;4.28;;;22.30;90.80;;;;;;6195426;23;20021;-86
2022/05/11 07:51:56;;;;;;;4.95;3.97;;;22.90;88.30;;;;;;6213091;23;20359;-86
2022/05/11 07:54:44;;;;;;;5.43;3.78;;;23.40;81.70;;;;;;6216729;23;20464;-85
2022/05/11 08:00:41;;;;;;;6.78;4.10;;;23.20;80.30;;;;;;6214937;23;20028;-86
2022/05/11 08:04:36;;;;;;;;;;;;;;;;;;;;;
2022/05/11 08:08:34;;;;;;;5.70;3.65;;;23.30;79.00;;;;;;6215522;23;20016;-84
2022/05/11 08:11:37;;;;;;;5.18;3.45;;;23.50;80.00;;;;;;5951588;24;20126;-87
2022/05/11 08:14:44;;;;;;;4.45;3.20;;;24.20;74.10;;;;;;5952396;24;20040;-86
2022/05/11 08:18:25;;;;;;;6.03;3.88;;;23.90;72.80;;;;;;5898339;24;20044;-87
2022/05/11 08:21:57;;;;;;;;;;;;;;;;;;;;;
2022/05/11 08:25:07;;;;;;;4.40;3.97;;;23.90;75.80;;;;;;6094732;23;20082;-88
2022/05/11 08:28:34;;;;;;;5.57;3.97;;;24.30;73.40;;;;;;5958584;23;20401;-87
2022/05/11 08:39:44;;;;;;;5.20;3.97;;;23.90;74.90;;;;;;5910717;24;20092;-87
2022/05/11 08:42:34;;;;;;;10.38;3.95;;;24.40;71.10;;;;;;5959518;23;20012;-89
2022/05/11 08:50:19;;;;;;;;;;;;;;;;;;;;;
2022/05/11 09:05:46;;;;;;;5.80;3.75;;;25.60;60.30;;;;;;6007896;23;20035;-87
2022/05/11 09:08:39;;;;;;;4.97;3.70;;;25.90;63.20;;;;;;6106455;23;20025;-86
2022/05/11 09:24:15;;;;;;;6.20;4.07;;;25.70;62.80;;;;;;6197701;23;20423;-86
2022/05/11 09:35:36;;;;;;;5.85;3.97;;;25.80;60.70;;;;;;6212986;23;20020;-86
2022/05/11 09:38:41;;;;;;;5.77;3.43;;;26.30;61.40;;;;;;6212024;23;20024;-89
2022/05/11 09:41:30;;;;;;;4.13;3.55;;;27.10;59.00;;;;;;6215704;23;20035;-88
2022/05/11 09:44:21;;;;;;;5.82;3.58;;;27.00;56.80;;;;;;6215908;23;20526;-89
2022/05/11 09:47:27;;;;;;;4.38;3.90;;;26.60;58.30;;;;;;6212620;23;20085;-87
2022/05/11 09:50:26;;;;;;;4.05;3.60;;;26.50;57.00;;;;;;6192019;23;20087;-89
2022/05/11 09:53:25;;;;;;;6.20;3.53;;;26.40;58.20;;;;;;6213553;23;20035;-89
2022/05/11 10:01:11;;;;;;;6.55;3.55;;;25.20;60.10;;;;;;6211573;23;20019;-87
2022/05/11 10:12:28;;;;;;;3.33;2.80;;;26.70;54.80;;;;;;6213093;23;20337;-85
2022/05/11 10:25:12;;;;;;;4.90;3.40;;;27.40;51.00;;;;;;6222686;22;20036;-86
2022/05/11 10:28:27;;;;;;;2.60;2.35;;;28.10;49.20;;;;;;6221694;23;20020;-86
2022/05/11 10:31:20;;;;;;;3.80;2.28;;;28.40;48.40;;;;;;6215719;23;20016;-84
2022/05/11 10:34:16;;;;;;;8.52;2.50;;;28.10;48.20;;;;;;6212580;23;20032;-85
2022/05/11 10:45:26;;;;;;;3.63;2.88;;;27.10;47.60;;;;;;6215199;23;20146;-87
2022/05/11 10:48:38;;;;;;;3.88;2.80;;;27.40;47.70;;;;;;6215917;23;20043;-85
2022/05/11 10:51:41;;;;;;;3.90;2.40;;;27.90;46.40;;;;;;6218643;23;20024;-89
2022/05/11 10:54:44;;;;;;;4.25;2.28;;;27.90;46.20;;;;;;6215503;23;20024;-87
2022/05/11 10:58:06;;;;;;;3.17;2.78;;;28.20;46.30;;;;;;6215226;23;20028;-88
2022/05/11 11:01:49;;;;;;;6.25;2.75;;;28.00;46.20;;;;;;6214855;23;20040;-89
2022/05/11 11:04:59;;;;;;;3.90;2.63;;;27.60;45.50;;;;;;6215384;23;20056;-88
2022/05/11 11:08:07;;;;;;;2.72;2.22;;;28.30;45.10;;;;;;6216352;23;20036;-86
2022/05/11 11:11:17;;;;;;;3.13;2.58;;;28.50;43.10;;;;;;6213845;23;20028;-88
2022/05/11 11:14:17;;;;;;;4.43;2.65;;;28.40;44.90;;;;;;6214576;23;20032;-84
2022/05/11 11:17:25;;;;;;;3.10;2.58;;;27.70;45.60;;;;;;6213215;23;20036;-84
2022/05/11 11:20:17;;;;;;;2.63;2.38;;;28.10;45.50;;;;;;6213196;23;20056;-88
2022/05/11 11:23:13;;;;;;;4.47;2.78;;;28.50;42.60;;;;;;6216807;23;20305;-85
2022/05/11 11:26:27;;;;;;;3.40;2.22;;;29.20;42.80;;;;;;6213126;23;20024;-88
2022/05/11 11:29:18;;;;;;;3.17;2.17;;;29.20;42.60;;;;;;6214172;23;20327;-90
2022/05/11 11:32:16;;;;;;;2.78;1.92;;;29.30;39.80;;;;;;6214332;23;20036;-87
2022/05/11 11:35:22;;;;;;;3.15;2.20;;;29.40;39.40;;;;;;6213239;23;20131;-86
2022/05/11 11:38:28;;;;;;;3.72;2.05;;;29.90;38.50;;;;;;6213858;23;20033;-88
2022/05/11 11:41:21;;;;;;;2.65;1.95;;;29.30;39.40;;;;;;6214346;23;20024;-86
2022/05/11 11:44:25;;;;;;;3.17;2.63;;;29.50;37.90;;;;;;6212923;23;20032;-86
2022/05/11 11:47:58;;;;;;;5.47;2.20;;;29.60;38.00;;;;;;6213821;23;20086;-86
2022/05/11 11:50:54;;;;;;;2.70;2.03;;;30.30;39.10;;;;;;6213846;23;20028;-85
2022/05/11 11:53:50;;;;;;;2.65;2.45;;;30.20;39.80;;;;;;6214000;23;20235;-88
2022/05/11 11:56:46;;;;;;;4.18;2.10;;;30.40;37.10;;;;;;6214465;23;20028;-86
2022/05/11 11:59:40;;;;;;;4.55;1.80;;;29.40;36.00;;;;;;6213250;23;20140;-85
2022/05/11 12:02:41;;;;;;;7.85;2.40;;;29.00;37.80;;;;;;6212447;23;20032;-89
2022/05/11 12:05:46;;;;;;;4.80;2.55;;;29.60;37.20;;;;;;6214352;23;20032;-89
2022/05/11 12:15:01;;;;;;;2.50;1.90;;;29.10;35.60;;;;;;6211242;23;20036;-85
2022/05/11 12:17:48;;;;;;;6.88;1.70;;;29.60;33.90;;;;;;6212343;23;20028;-87
2022/05/11 12:20:43;;;;;;;2.90;2.13;;;29.80;35.30;;;;;;6213790;23;20086;-88
2022/05/11 12:23:46;;;;;;;5.70;1.80;;;29.40;35.00;;;;;;6213821;23;20051;-86
2022/05/11 12:26:39;;;;;;;4.53;1.85;;;29.70;34.20;;;;;;6211508;23;20451;-84
2022/05/11 12:32:40;;;;;;;3.88;2.03;;;30.80;33.30;;;;;;6211731;23;20039;-87
2022/05/11 12:35:43;;;;;;;3.08;1.92;;;30.50;34.20;;;;;;6215467;23;20099;-86
2022/05/11 12:38:43;;;;;;;2.33;1.95;;;30.10;35.30;;;;;;6211596;23;20059;-85
2022/05/11 12:41:31;;;;;;;5.55;2.17;;;29.40;35.00;;;;;;6213563;23;20025;-87
2022/05/11 12:44:28;;;;;;;3.90;2.28;;;29.60;36.60;;;;;;6212235;23;20032;-90
2022/05/11 12:47:29;;;;;;;5.07;2.10;;;29.40;37.60;;;;;;6212785;23;20337;-86
2022/05/11 12:50:21;;;;;;;5.40;2.10;;;29.10;35.40;;;;;;6215557;23;20049;-87
2022/05/11 12:53:17;;;;;;;2.60;1.77;;;29.30;35.00;;;;;;6213490;23;20032;-88
2022/05/11 12:56:19;;;;;;;2.80;1.67;;;29.80;34.20;;;;;;6213122;23;20407;-89
2022/05/11 12:59:18;;;;;;;5.97;2.10;;;30.50;33.00;;;;;;6215229;23;20099;-85
2022/05/11 13:02:21;;;;;;;5.60;1.95;;;30.10;36.10;;;;;;6213055;23;20039;-89
2022/05/11 13:05:15;;;;;;;3.55;2.00;;;30.30;35.60;;;;;;6211309;23;20032;-88
2022/05/11 13:08:04;;;;;;;1.90;1.80;;;30.20;33.40;;;;;;6215915;23;20024;-86
2022/05/11 13:10:56;;;;;;;5.70;2.20;;;30.20;34.30;;;;;;6213960;23;20032;-84
2022/05/11 13:13:55;;;;;;;3.88;2.38;;;29.50;35.90;;;;;;6213083;23;20507;-86
2022/05/11 13:16:54;;;;;;;3.40;2.15;;;29.50;37.00;;;;;;6212570;23;20025;-87
2022/05/11 13:19:42;;;;;;;3.30;2.05;;;29.70;34.80;;;;;;6213385;23;20021;-89
2022/05/11 13:22:35;;;;;;;4.20;1.77;;;29.90;33.20;;;;;;6212633;23;20447;-88
2022/05/11 13:25:40;;;;;;;2.78;1.50;;;30.50;32.70;;;;;;6212905;23;20035;-88
2022/05/11 13:28:41;;;;;;;3.05;1.90;;;30.60;33.90;;;;;;6211391;23;20028;-88
2022/05/11 13:31:30;;;;;;;6.75;1.77;;;30.60;31.80;;;;;;6215308;23;20021;-87
2022/05/11 13:34:34;;;;;;;6.70;1.85;;;30.90;32.20;;;;;;6214823;23;20052;-88
2022/05/11 13:37:29;;;;;;;4.85;1.80;;;31.30;31.80;;;;;;6216586;23;20118;-88
2022/05/11 13:40:26;;;;;;;2.55;2.00;;;30.90;31.90;;;;;;6213329;23;20024;-86
2022/05/11 13:43:36;;;;;;;2.10;1.63;;;31.60;31.90;;;;;;6214190;23;20040;-86
2022/05/11 13:49:48;;;;;;;1.95;1.48;;;30.40;31.00;;;;;;6213683;23;20021;-85
2022/05/11 13:52:50;;;;;;;3.03;1.70;;;30.60;31.10;;;;;;6213100;23;20055;-88
2022/05/11 13:56:00;;;;;;;4.28;2.03;;;30.10;31.90;;;;;;6213382;23;20029;-87
2022/05/11 13:58:58;;;;;;;1.83;1.70;;;29.70;32.80;;;;;;6214814;23;20033;-87
2022/05/11 14:01:47;;;;;;;2.72;1.88;;;30.10;32.50;;;;;;6217252;23;20325;-86
2022/05/11 14:04:35;;;;;;;4.60;1.80;;;29.90;32.90;;;;;;6220330;23;20028;-84
2022/05/11 14:07:22;;;;;;;4.60;1.95;;;30.30;33.00;;;;;;6218924;23;20024;-84
2022/05/11 14:10:10;;;;;;;6.50;1.73;;;29.90;32.00;;;;;;6221599;23;20081;-85
2022/05/11 14:12:58;;;;;;;5.53;1.90;;;29.60;32.00;;;;;;6225096;23;20031;-87
2022/05/11 14:15:46;;;;;;;4.68;1.52;;;30.40;31.40;;;;;;6219478;23;20031;-87
2022/05/11 14:18:35;;;;;;;5.95;2.15;;;29.90;33.00;;;;;;6219662;23;20079;-87
2022/05/11 14:21:23;;;;;;;4.65;1.73;;;30.60;32.00;;;;;;6220502;23;20050;-86
2022/05/11 14:24:11;;;;;;;3.25;1.70;;;31.40;31.00;;;;;;6217663;23;20021;-87
2022/05/11 14:26:59;;;;;;;3.83;1.73;;;30.70;28.10;;;;;;6217358;23;20381;-86
2022/05/11 14:29:49;;;;;;;4.20;1.95;;;30.40;29.30;;;;;;6216957;23;20031;-88
2022/05/11 14:32:41;;;;;;;2.22;1.65;;;30.30;30.50;;;;;;6214654;23;20242;-85
2022/05/11 14:35:30;;;;;;;3.75;1.88;;;30.40;30.70;;;;;;6216445;23;20029;-86
2022/05/11 14:38:20;;;;;;;3.25;1.90;;;29.60;32.50;;;;;;6217426;23;20086;-86
2022/05/11 14:41:10;;;;;;;4.00;2.10;;;29.70;33.30;;;;;;6218813;23;20039;-87
2022/05/11 14:44:01;;;;;;;3.03;1.92;;;29.60;34.00;;;;;;6225171;23;20419;-86
2022/05/11 14:46:52;;;;;;;2.13;1.80;;;30.10;30.00;;;;;;6229762;23;20024;-88
2022/05/11 14:49:40;;;;;;;2.50;2.00;;;30.20;31.90;;;;;;6228228;23;20025;-87
2022/05/11 14:52:28;;;;;;;4.85;1.95;;;29.90;32.30;;;;;;6229850;23;20055;-87
2022/05/11 14:55:17;;;;;;;4.00;2.10;;;29.80;33.70;;;;;;6236115;23;20013;-88
2022/05/11 15:04:31;;;;;;;4.97;1.90;;;29.70;33.20;;;;;;6222925;23;20029;-87
2022/05/11 15:07:21;;;;;;;2.97;1.70;;;29.60;33.50;;;;;;6221660;23;20025;-87
2022/05/11 15:10:12;;;;;;;1.70;1.60;;;29.20;34.30;;;;;;6214724;23;20419;-86
2022/05/11 15:16:08;;;;;;;3.17;1.80;;;29.00;34.80;;;;;;6214759;23;20036;-87
2022/05/11 15:18:58;;;;;;;5.18;1.77;;;28.70;33.60;;;;;;6213815;23;20040;-88
2022/05/11 15:21:46;;;;;;;3.00;1.77;;;28.70;35.10;;;;;;6213331;23;20036;-85
2022/05/11 15:24:34;;;;;;;6.95;1.90;;;28.60;34.20;;;;;;6217012;23;20028;-86
2022/05/11 15:27:27;;;;;;;4.15;2.03;;;28.60;35.60;;;;;;6213900;23;20021;-86
2022/05/11 15:30:20;;;;;;;3.95;2.05;;;28.90;35.70;;;;;;6214747;23;20029;-85
2022/05/11 15:33:19;;;;;;;5.93;1.70;;;28.60;35.50;;;;;;6214194;23;20043;-87
2022/05/11 15:36:10;;;;;;;5.95;2.00;;;28.30;35.90;;;;;;6212955;23;20024;-87
2022/05/11 15:39:00;;;;;;;3.15;1.98;;;27.70;36.80;;;;;;6214814;23;20423;-85
2022/05/11 15:41:47;;;;;;;2.42;2.00;;;27.20;37.40;;;;;;6215251;23;20028;-86
2022/05/11 15:44:35;;;;;;;7.63;2.10;;;27.00;37.50;;;;;;6214206;23;20021;-86
2022/05/11 15:47:23;;;;;;;3.72;1.83;;;26.80;38.60;;;;;;6214352;23;20420;-85
2022/05/11 15:50:14;;;;;;;4.85;1.88;;;26.90;37.50;;;;;;6213442;23;20032;-87
2022/05/11 15:53:04;;;;;;;4.47;1.80;;;26.80;38.10;;;;;;6215400;23;20079;-85
2022/05/11 15:55:55;;;;;;;3.17;2.30;;;26.90;38.10;;;;;;6215687;23;20080;-86
2022/05/11 15:58:43;;;;;;;12.37;2.13;;;27.00;37.20;;;;;;6215041;23;20107;-83
2022/05/11 16:01:31;;;;;;;2.67;1.75;;;27.00;36.30;;;;;;6216709;23;20024;-85
2022/05/11 16:04:21;;;;;;;2.47;1.77;;;27.00;37.00;;;;;;6214043;23;20304;-85
2022/05/11 16:07:12;;;;;;;6.75;2.10;;;27.00;38.30;;;;;;6213288;23;20029;-86
2022/05/11 16:09:59;;;;;;;4.22;2.00;;;27.00;38.90;;;;;;6213115;23;20025;-87
2022/05/11 16:12:46;;;;;;;7.03;2.05;;;27.10;39.50;;;;;;6216291;23;20046;-86
2022/05/11 16:15:34;;;;;;;3.45;1.92;;;27.00;39.40;;;;;;6213982;23;20024;-86
2022/05/11 16:21:33;;;;;;;1.90;1.70;;;26.60;38.20;;;;;;6213285;23;20044;-86
2022/05/11 16:24:21;;;;;;;5.53;1.80;;;26.60;36.30;;;;;;6213324;23;20091;-87
2022/05/11 16:27:11;;;;;;;3.85;1.80;;;26.60;37.10;;;;;;6213888;23;20094;-87
2022/05/11 16:29:59;;;;;;;6.85;2.10;;;26.60;37.40;;;;;;6212861;23;20032;-84
2022/05/11 16:32:49;;;;;;;4.50;2.00;;;26.40;37.20;;;;;;6214302;23;20097;-86
2022/05/11 16:35:56;;;;;;;2.63;1.80;;;26.30;38.50;;;;;;6212366;23;20028;-86
2022/05/11 16:39:23;;;;;;;5.22;2.17;;;26.20;38.40;;;;;;6211161;23;20029;-86
2022/05/11 16:46:19;;;;;;;4.03;1.83;;;26.00;37.60;;;;;;6145191;23;20021;-83
2022/05/11 16:57:35;;;;;;;3.85;1.98;;;25.70;38.60;;;;;;6121967;23;20298;-84
2022/05/11 17:01:01;;;;;;;5.65;1.80;;;25.60;39.00;;;;;;6121864;23;20118;-85
2022/05/11 17:03:48;;;;;;;5.40;1.67;;;25.50;38.40;;;;;;6124594;23;20037;-84
2022/05/11 17:06:39;;;;;;;2.67;1.45;;;25.50;38.00;;;;;;6122250;23;20065;-82
2022/05/11 17:10:16;;;;;;;1.95;1.75;;;25.50;37.50;;;;;;6123889;23;20037;-82
2022/05/11 17:18:21;;;;;;;2.63;1.80;;;25.40;35.80;;;;;;5952603;24;20103;-81
2022/05/11 17:33:58;;;;;;;2.05;1.60;;;25.10;33.70;;;;;;6036977;23;20249;-84
2022/05/11 17:57:54;;;;;;;3.08;1.55;;;24.50;36.10;;;;;;6214627;23;20368;-86
2022/05/11 18:00:49;;;;;;;3.70;1.70;;;24.40;35.00;;;;;;6213096;23;20025;-87
2022/05/11 18:24:55;;;;;;;2.03;1.50;;;23.60;39.60;;;;;;6123287;23;20097;-87
2022/05/11 18:36:37;;;;;;;3.60;1.55;;;23.10;42.30;;;;;;6037568;23;19996;-87
2022/05/11 18:39:27;;;;;;;4.32;1.50;;;22.90;41.40;;;;;;6038356;23;20033;-86
2022/05/11 18:47:24;;;;;;;3.08;1.60;;;22.70;40.80;;;;;;6121159;23;20029;-85
2022/05/11 18:54:13;;;;;;;3.50;1.92;;;22.40;41.10;;;;;;6122844;23;20421;-86
2022/05/11 18:57:22;;;;;;;1.98;1.50;;;22.20;41.20;;;;;;6122691;23;20030;-84
2022/05/11 19:04:49;;;;;;;4.38;1.80;;;22.00;41.60;;;;;;6123497;23;20045;-86
2022/05/11 19:08:14;;;;;;;11.55;1.83;;;22.00;41.80;;;;;;6124669;23;20021;-86